sensor_id;sensor_type;location;lat;lon;timestamp;temperature;humidity
4993;DHT22;2514;53.524;10.166;2022-08-19T00:01:39;19.00;99.90
4993;DHT22;2514;53.524;10.166;2022-08-19T00:04:09;19.00;99.90
4993;DHT22;2514;53.524;10.166;2022-08-19T00:06:38;19.00;99.90
4993;DHT22;2514;53.524;10.166;2022-08-19T00:09:07;19.00;99.90
4993;DHT22;2514;53.524;10.166;2022-08-19T00:11:36;18.90;99.90
4993;DHT22;2514;53.524;10.166;2022-08-19T00:14:05;19.00;99.90
4993;DHT22;2514;53.524;10.166;2022-08-19T00:16:32;19.00;99.90
4993;DHT22;2514;53.524;10.166;2022-08-19T00:18:59;19.00;99.90
4993;DHT22;2514;53.524;10.166;2022-08-19T00:21:27;19.10;99.90
4993;DHT22;2514;53.524;10.166;2022-08-19T00:23:55;19.20;99.90
4993;DHT22;2514;53.524;10.166;2022-08-19T00:26:23;19.20;99.90
4993;DHT22;2514;53.524;10.166;2022-08-19T00:28:51;19.10;99.90
4993;DHT22;2514;53.524;10.166;2022-08-19T00:31:17;19.10;99.90
4993;DHT22;2514;53.524;10.166;2022-08-19T00:33:44;19.00;99.90
4993;DHT22;2514;53.524;10.166;2022-08-19T00:36:11;19.00;99.90
4993;DHT22;2514;53.524;10.166;2022-08-19T00:38:40;19.00;99.90
4993;DHT22;2514;53.524;10.166;2022-08-19T00:41:09;19.00;99.90
4993;DHT22;2514;53.524;10.166;2022-08-19T00:43:36;19.00;99.90
4993;DHT22;2514;53.524;10.166;2022-08-19T00:46:04;19.00;99.90
4993;DHT22;2514;53.524;10.166;2022-08-19T00:48:32;19.00;99.90
4993;DHT22;2514;53.524;10.166;2022-08-19T00:50:59;18.90;99.90
4993;DHT22;2514;53.524;10.166;2022-08-19T00:53:28;18.90;99.90
4993;DHT22;2514;53.524;10.166;2022-08-19T00:55:59;18.90;99.90
4993;DHT22;2514;53.524;10.166;2022-08-19T00:58:30;18.90;99.90
4993;DHT22;2514;53.524;10.166;2022-08-19T01:00:59;18.80;99.90
4993;DHT22;2514;53.524;10.166;2022-08-19T01:03:26;18.90;99.90
4993;DHT22;2514;53.524;10.166;2022-08-19T01:05:54;18.90;99.90
4993;DHT22;2514;53.524;10.166;2022-08-19T01:08:22;18.90;99.90
4993;DHT22;2514;53.524;10.166;2022-08-19T01:10:51;18.80;99.90
4993;DHT22;2514;53.524;10.166;2022-08-19T01:13:24;18.80;99.90
4993;DHT22;2514;53.524;10.166;2022-08-19T01:15:56;18.80;99.90
4993;DHT22;2514;53.524;10.166;2022-08-19T01:18:24;18.80;99.90
4993;DHT22;2514;53.524;10.166;2022-08-19T01:20:53;18.80;99.90
4993;DHT22;2514;53.524;10.166;2022-08-19T01:23:22;18.80;99.90
4993;DHT22;2514;53.524;10.166;2022-08-19T01:26:09;18.80;99.90
4993;DHT22;2514;53.524;10.166;2022-08-19T01:28:38;18.80;99.90
4993;DHT22;2514;53.524;10.166;2022-08-19T01:31:06;18.80;99.90
4993;DHT22;2514;53.524;10.166;2022-08-19T01:33:34;18.90;99.90
4993;DHT22;2514;53.524;10.166;2022-08-19T01:36:06;18.90;99.90
4993;DHT22;2514;53.524;10.166;2022-08-19T01:38:37;18.90;99.90
4993;DHT22;2514;53.524;10.166;2022-08-19T01:41:05;18.80;99.90
4993;DHT22;2514;53.524;10.166;2022-08-19T01:43:32;18.80;99.90
4993;DHT22;2514;53.524;10.166;2022-08-19T01:45:59;18.80;99.90
4993;DHT22;2514;53.524;10.166;2022-08-19T01:48:27;18.90;99.90
4993;DHT22;2514;53.524;10.166;2022-08-19T01:50:54;18.90;99.90
4993;DHT22;2514;53.524;10.166;2022-08-19T01:53:21;18.90;99.90
4993;DHT22;2514;53.524;10.166;2022-08-19T01:55:50;18.80;99.90
4993;DHT22;2514;53.524;10.166;2022-08-19T01:58:20;18.80;99.90
4993;DHT22;2514;53.524;10.166;2022-08-19T02:00:47;18.80;99.90
4993;DHT22;2514;53.524;10.166;2022-08-19T02:03:15;18.80;99.90
4993;DHT22;2514;53.524;10.166;2022-08-19T02:05:42;18.90;99.90
4993;DHT22;2514;53.524;10.166;2022-08-19T02:08:10;18.80;99.90
4993;DHT22;2514;53.524;10.166;2022-08-19T02:10:39;18.80;99.90
4993;DHT22;2514;53.524;10.166;2022-08-19T02:13:09;18.80;99.90
4993;DHT22;2514;53.524;10.166;2022-08-19T02:15:36;18.80;99.90
4993;DHT22;2514;53.524;10.166;2022-08-19T02:18:03;18.80;99.90
4993;DHT22;2514;53.524;10.166;2022-08-19T02:20:30;18.70;99.90
4993;DHT22;2514;53.524;10.166;2022-08-19T02:22:57;18.70;99.90
4993;DHT22;2514;53.524;10.166;2022-08-19T02:25:24;18.70;99.90
4993;DHT22;2514;53.524;10.166;2022-08-19T02:27:51;18.70;99.90
4993;DHT22;2514;53.524;10.166;2022-08-19T02:30:21;18.70;99.90
4993;DHT22;2514;53.524;10.166;2022-08-19T02:32:48;18.70;99.90
4993;DHT22;2514;53.524;10.166;2022-08-19T02:35:15;18.70;99.90
4993;DHT22;2514;53.524;10.166;2022-08-19T02:37:43;18.80;99.90
4993;DHT22;2514;53.524;10.166;2022-08-19T02:40:28;18.70;99.90
4993;DHT22;2514;53.524;10.166;2022-08-19T02:42:55;18.70;99.90
4993;DHT22;2514;53.524;10.166;2022-08-19T02:45:24;18.80;99.90
4993;DHT22;2514;53.524;10.166;2022-08-19T02:47:51;18.80;99.90
4993;DHT22;2514;53.524;10.166;2022-08-19T02:50:18;18.70;99.90
4993;DHT22;2514;53.524;10.166;2022-08-19T02:52:45;18.70;99.90
4993;DHT22;2514;53.524;10.166;2022-08-19T02:55:12;18.70;99.90
4993;DHT22;2514;53.524;10.166;2022-08-19T02:57:39;18.80;99.90
4993;DHT22;2514;53.524;10.166;2022-08-19T03:00:08;18.70;99.90
4993;DHT22;2514;53.524;10.166;2022-08-19T03:02:38;18.60;99.90
4993;DHT22;2514;53.524;10.166;2022-08-19T03:05:07;18.60;99.90
4993;DHT22;2514;53.524;10.166;2022-08-19T03:07:35;18.70;99.90
4993;DHT22;2514;53.524;10.166;2022-08-19T03:10:02;18.70;99.90
4993;DHT22;2514;53.524;10.166;2022-08-19T03:12:29;18.70;99.90
4993;DHT22;2514;53.524;10.166;2022-08-19T03:14:56;18.70;99.90
4993;DHT22;2514;53.524;10.166;2022-08-19T03:17:23;18.70;99.90
4993;DHT22;2514;53.524;10.166;2022-08-19T03:19:51;18.60;99.90
4993;DHT22;2514;53.524;10.166;2022-08-19T03:22:18;18.60;99.90
4993;DHT22;2514;53.524;10.166;2022-08-19T03:24:45;18.60;99.90
4993;DHT22;2514;53.524;10.166;2022-08-19T03:27:12;18.60;99.90
4993;DHT22;2514;53.524;10.166;2022-08-19T03:29:39;18.60;99.90
4993;DHT22;2514;53.524;10.166;2022-08-19T03:32:06;18.60;99.90
4993;DHT22;2514;53.524;10.166;2022-08-19T03:34:34;18.60;99.90
4993;DHT22;2514;53.524;10.166;2022-08-19T03:37:07;18.60;99.90
4993;DHT22;2514;53.524;10.166;2022-08-19T03:39:35;18.60;99.90
4993;DHT22;2514;53.524;10.166;2022-08-19T03:42:03;18.50;99.90
4993;DHT22;2514;53.524;10.166;2022-08-19T03:44:31;18.50;99.90
4993;DHT22;2514;53.524;10.166;2022-08-19T03:46:59;18.50;99.90
4993;DHT22;2514;53.524;10.166;2022-08-19T03:49:29;18.50;99.90
4993;DHT22;2514;53.524;10.166;2022-08-19T03:51:57;18.60;99.90
4993;DHT22;2514;53.524;10.166;2022-08-19T03:54:27;18.50;99.90
4993;DHT22;2514;53.524;10.166;2022-08-19T03:56:55;18.60;99.90
4993;DHT22;2514;53.524;10.166;2022-08-19T03:59:24;18.60;99.90
4993;DHT22;2514;53.524;10.166;2022-08-19T04:01:52;18.60;99.90
4993;DHT22;2514;53.524;10.166;2022-08-19T04:04:19;18.60;99.90
4993;DHT22;2514;53.524;10.166;2022-08-19T04:06:47;18.50;99.90
4993;DHT22;2514;53.524;10.166;2022-08-19T04:09:14;18.60;99.90
4993;DHT22;2514;53.524;10.166;2022-08-19T04:11:47;18.60;99.90
4993;DHT22;2514;53.524;10.166;2022-08-19T04:14:18;18.60;99.90
4993;DHT22;2514;53.524;10.166;2022-08-19T04:16:46;18.50;99.90
4993;DHT22;2514;53.524;10.166;2022-08-19T04:19:15;18.50;99.90
4993;DHT22;2514;53.524;10.166;2022-08-19T04:21:44;18.50;99.90
4993;DHT22;2514;53.524;10.166;2022-08-19T04:24:12;18.50;99.90
4993;DHT22;2514;53.524;10.166;2022-08-19T04:26:39;18.40;99.90
4993;DHT22;2514;53.524;10.166;2022-08-19T04:29:10;18.50;99.90
4993;DHT22;2514;53.524;10.166;2022-08-19T04:31:38;18.60;99.90
4993;DHT22;2514;53.524;10.166;2022-08-19T04:34:07;18.70;99.90
4993;DHT22;2514;53.524;10.166;2022-08-19T04:36:37;18.60;99.90
4993;DHT22;2514;53.524;10.166;2022-08-19T04:39:06;18.60;99.90
4993;DHT22;2514;53.524;10.166;2022-08-19T04:41:34;18.60;99.90
4993;DHT22;2514;53.524;10.166;2022-08-19T04:44:20;18.60;99.90
4993;DHT22;2514;53.524;10.166;2022-08-19T04:46:47;18.60;99.90
4993;DHT22;2514;53.524;10.166;2022-08-19T04:49:16;18.60;99.90
4993;DHT22;2514;53.524;10.166;2022-08-19T04:51:45;18.70;99.90
4993;DHT22;2514;53.524;10.166;2022-08-19T04:54:14;18.40;99.90
4993;DHT22;2514;53.524;10.166;2022-08-19T04:56:41;18.50;99.90
4993;DHT22;2514;53.524;10.166;2022-08-19T04:59:09;18.50;99.90
4993;DHT22;2514;53.524;10.166;2022-08-19T05:01:38;18.50;99.90
4993;DHT22;2514;53.524;10.166;2022-08-19T05:04:06;18.40;99.90
4993;DHT22;2514;53.524;10.166;2022-08-19T05:06:35;18.40;99.90
4993;DHT22;2514;53.524;10.166;2022-08-19T05:09:04;18.50;99.90
4993;DHT22;2514;53.524;10.166;2022-08-19T05:11:33;18.50;99.90
4993;DHT22;2514;53.524;10.166;2022-08-19T05:14:01;18.30;99.90
4993;DHT22;2514;53.524;10.166;2022-08-19T05:16:28;18.40;99.90
4993;DHT22;2514;53.524;10.166;2022-08-19T05:18:57;18.30;99.90
4993;DHT22;2514;53.524;10.166;2022-08-19T05:21:42;18.20;99.90
4993;DHT22;2514;53.524;10.166;2022-08-19T05:24:27;18.20;99.90
4993;DHT22;2514;53.524;10.166;2022-08-19T05:26:55;18.20;99.90
4993;DHT22;2514;53.524;10.166;2022-08-19T05:29:25;18.20;99.90
4993;DHT22;2514;53.524;10.166;2022-08-19T05:31:54;18.20;99.90
4993;DHT22;2514;53.524;10.166;2022-08-19T05:34:24;18.30;99.90
4993;DHT22;2514;53.524;10.166;2022-08-19T05:36:55;18.20;99.90
4993;DHT22;2514;53.524;10.166;2022-08-19T05:39:24;18.30;99.90
4993;DHT22;2514;53.524;10.166;2022-08-19T05:41:54;18.30;99.90
4993;DHT22;2514;53.524;10.166;2022-08-19T05:44:23;18.30;99.90
4993;DHT22;2514;53.524;10.166;2022-08-19T05:46:51;18.20;99.90
4993;DHT22;2514;53.524;10.166;2022-08-19T05:49:22;18.30;99.90
4993;DHT22;2514;53.524;10.166;2022-08-19T05:51:50;18.20;99.90
4993;DHT22;2514;53.524;10.166;2022-08-19T05:54:17;18.20;99.90
4993;DHT22;2514;53.524;10.166;2022-08-19T05:56:45;18.10;99.90
4993;DHT22;2514;53.524;10.166;2022-08-19T05:59:14;18.10;99.90
4993;DHT22;2514;53.524;10.166;2022-08-19T06:01:44;18.10;99.90
4993;DHT22;2514;53.524;10.166;2022-08-19T06:04:12;18.10;99.90
4993;DHT22;2514;53.524;10.166;2022-08-19T06:06:41;18.10;99.90
4993;DHT22;2514;53.524;10.166;2022-08-19T06:09:08;18.10;99.90
4993;DHT22;2514;53.524;10.166;2022-08-19T06:11:37;18.20;99.90
4993;DHT22;2514;53.524;10.166;2022-08-19T06:14:08;18.20;99.90
4993;DHT22;2514;53.524;10.166;2022-08-19T06:16:36;18.30;99.90
4993;DHT22;2514;53.524;10.166;2022-08-19T06:19:06;18.40;99.90
4993;DHT22;2514;53.524;10.166;2022-08-19T06:21:35;18.40;99.90
4993;DHT22;2514;53.524;10.166;2022-08-19T06:24:06;18.40;99.90
4993;DHT22;2514;53.524;10.166;2022-08-19T06:26:34;18.30;99.90
4993;DHT22;2514;53.524;10.166;2022-08-19T06:29:02;18.30;99.90
4993;DHT22;2514;53.524;10.166;2022-08-19T06:31:29;18.40;99.90
4993;DHT22;2514;53.524;10.166;2022-08-19T06:33:59;18.50;99.90
4993;DHT22;2514;53.524;10.166;2022-08-19T06:36:29;18.50;99.90
4993;DHT22;2514;53.524;10.166;2022-08-19T06:38:57;18.50;99.90
4993;DHT22;2514;53.524;10.166;2022-08-19T06:41:26;18.40;99.90
4993;DHT22;2514;53.524;10.166;2022-08-19T06:43:53;18.50;99.90
4993;DHT22;2514;53.524;10.166;2022-08-19T06:46:21;18.40;99.90
4993;DHT22;2514;53.524;10.166;2022-08-19T06:48:48;18.40;99.90
4993;DHT22;2514;53.524;10.166;2022-08-19T06:51:16;18.50;99.90
4993;DHT22;2514;53.524;10.166;2022-08-19T06:53:44;18.60;99.90
4993;DHT22;2514;53.524;10.166;2022-08-19T06:56:12;18.50;99.90
4993;DHT22;2514;53.524;10.166;2022-08-19T06:58:40;18.60;99.90
4993;DHT22;2514;53.524;10.166;2022-08-19T07:01:08;18.60;99.90
4993;DHT22;2514;53.524;10.166;2022-08-19T07:03:36;18.60;99.90
4993;DHT22;2514;53.524;10.166;2022-08-19T07:06:05;18.60;99.90
4993;DHT22;2514;53.524;10.166;2022-08-19T07:08:33;18.70;99.90
4993;DHT22;2514;53.524;10.166;2022-08-19T07:11:02;18.60;99.90
4993;DHT22;2514;53.524;10.166;2022-08-19T07:13:28;18.70;99.90
4993;DHT22;2514;53.524;10.166;2022-08-19T07:16:04;18.70;99.90
4993;DHT22;2514;53.524;10.166;2022-08-19T07:18:31;18.70;99.90
4993;DHT22;2514;53.524;10.166;2022-08-19T07:21:03;18.90;99.90
4993;DHT22;2514;53.524;10.166;2022-08-19T07:23:30;19.00;99.90
4993;DHT22;2514;53.524;10.166;2022-08-19T07:25:57;19.00;99.90
4993;DHT22;2514;53.524;10.166;2022-08-19T07:28:24;19.00;99.90
4993;DHT22;2514;53.524;10.166;2022-08-19T07:30:51;19.20;99.90
4993;DHT22;2514;53.524;10.166;2022-08-19T07:33:19;19.10;99.90
4993;DHT22;2514;53.524;10.166;2022-08-19T07:35:46;19.30;99.90
4993;DHT22;2514;53.524;10.166;2022-08-19T07:38:15;19.20;99.90
4993;DHT22;2514;53.524;10.166;2022-08-19T07:40:44;19.10;99.90
4993;DHT22;2514;53.524;10.166;2022-08-19T07:43:11;19.20;99.90
4993;DHT22;2514;53.524;10.166;2022-08-19T07:45:38;19.10;99.90
4993;DHT22;2514;53.524;10.166;2022-08-19T07:48:05;19.10;99.90
4993;DHT22;2514;53.524;10.166;2022-08-19T07:50:33;19.20;99.90
4993;DHT22;2514;53.524;10.166;2022-08-19T07:53:00;19.30;99.90
4993;DHT22;2514;53.524;10.166;2022-08-19T07:55:27;19.30;99.90
4993;DHT22;2514;53.524;10.166;2022-08-19T07:57:53;19.20;99.90
4993;DHT22;2514;53.524;10.166;2022-08-19T08:00:20;19.20;99.90
4993;DHT22;2514;53.524;10.166;2022-08-19T08:02:47;19.10;99.90
4993;DHT22;2514;53.524;10.166;2022-08-19T08:05:14;19.00;99.90
4993;DHT22;2514;53.524;10.166;2022-08-19T08:08:00;19.20;99.90
4993;DHT22;2514;53.524;10.166;2022-08-19T08:10:44;19.10;99.90
4993;DHT22;2514;53.524;10.166;2022-08-19T08:13:11;19.00;99.90
4993;DHT22;2514;53.524;10.166;2022-08-19T08:15:38;19.20;99.90
4993;DHT22;2514;53.524;10.166;2022-08-19T08:18:05;19.20;99.90
4993;DHT22;2514;53.524;10.166;2022-08-19T08:20:33;19.30;99.90
4993;DHT22;2514;53.524;10.166;2022-08-19T08:23:01;19.40;99.90
4993;DHT22;2514;53.524;10.166;2022-08-19T08:25:45;19.40;99.90
4993;DHT22;2514;53.524;10.166;2022-08-19T08:28:14;19.50;99.90
4993;DHT22;2514;53.524;10.166;2022-08-19T08:30:41;19.60;99.90
4993;DHT22;2514;53.524;10.166;2022-08-19T08:33:09;19.50;99.90
4993;DHT22;2514;53.524;10.166;2022-08-19T08:35:36;19.50;99.90
4993;DHT22;2514;53.524;10.166;2022-08-19T08:38:05;19.50;99.90
4993;DHT22;2514;53.524;10.166;2022-08-19T08:40:39;19.60;99.90
4993;DHT22;2514;53.524;10.166;2022-08-19T08:43:27;19.70;99.90
4993;DHT22;2514;53.524;10.166;2022-08-19T08:46:00;19.60;99.90
4993;DHT22;2514;53.524;10.166;2022-08-19T08:48:38;19.40;99.90
4993;DHT22;2514;53.524;10.166;2022-08-19T08:51:10;19.40;99.90
4993;DHT22;2514;53.524;10.166;2022-08-19T08:53:40;19.50;99.90
4993;DHT22;2514;53.524;10.166;2022-08-19T08:56:10;19.50;99.90
4993;DHT22;2514;53.524;10.166;2022-08-19T08:58:46;19.60;99.90
4993;DHT22;2514;53.524;10.166;2022-08-19T09:01:14;19.60;99.90
4993;DHT22;2514;53.524;10.166;2022-08-19T09:03:42;19.70;99.90
4993;DHT22;2514;53.524;10.166;2022-08-19T09:06:14;19.70;99.90
4993;DHT22;2514;53.524;10.166;2022-08-19T09:08:55;19.60;99.90
4993;DHT22;2514;53.524;10.166;2022-08-19T09:11:38;19.60;99.90
4993;DHT22;2514;53.524;10.166;2022-08-19T09:14:13;19.70;99.90
4993;DHT22;2514;53.524;10.166;2022-08-19T09:16:41;19.60;99.90
4993;DHT22;2514;53.524;10.166;2022-08-19T09:19:08;19.60;99.90
4993;DHT22;2514;53.524;10.166;2022-08-19T09:21:36;19.50;99.90
4993;DHT22;2514;53.524;10.166;2022-08-19T09:24:06;19.50;99.90
4993;DHT22;2514;53.524;10.166;2022-08-19T09:26:33;19.50;99.90
4993;DHT22;2514;53.524;10.166;2022-08-19T09:29:00;19.50;99.90
4993;DHT22;2514;53.524;10.166;2022-08-19T09:31:31;19.50;99.90
4993;DHT22;2514;53.524;10.166;2022-08-19T09:33:58;19.50;99.90
4993;DHT22;2514;53.524;10.166;2022-08-19T09:36:27;19.50;99.90
4993;DHT22;2514;53.524;10.166;2022-08-19T09:38:58;19.50;99.90
4993;DHT22;2514;53.524;10.166;2022-08-19T09:41:27;19.70;99.90
4993;DHT22;2514;53.524;10.166;2022-08-19T09:43:55;19.80;99.90
4993;DHT22;2514;53.524;10.166;2022-08-19T09:46:24;19.80;99.90
4993;DHT22;2514;53.524;10.166;2022-08-19T09:48:52;19.90;99.90
4993;DHT22;2514;53.524;10.166;2022-08-19T09:51:22;19.90;99.90
4993;DHT22;2514;53.524;10.166;2022-08-19T09:53:50;19.90;99.90
4993;DHT22;2514;53.524;10.166;2022-08-19T09:56:20;20.00;99.90
4993;DHT22;2514;53.524;10.166;2022-08-19T09:58:49;19.80;99.90
4993;DHT22;2514;53.524;10.166;2022-08-19T10:01:18;19.80;99.90
4993;DHT22;2514;53.524;10.166;2022-08-19T10:03:48;19.70;99.90
4993;DHT22;2514;53.524;10.166;2022-08-19T10:06:16;19.70;99.90
4993;DHT22;2514;53.524;10.166;2022-08-19T10:08:43;19.70;99.90
4993;DHT22;2514;53.524;10.166;2022-08-19T10:11:10;19.80;99.90
4993;DHT22;2514;53.524;10.166;2022-08-19T10:13:39;19.70;99.90
4993;DHT22;2514;53.524;10.166;2022-08-19T10:16:11;19.80;99.90
4993;DHT22;2514;53.524;10.166;2022-08-19T10:18:40;19.80;99.90
4993;DHT22;2514;53.524;10.166;2022-08-19T10:21:11;19.70;99.90
4993;DHT22;2514;53.524;10.166;2022-08-19T10:23:40;19.70;99.90
4993;DHT22;2514;53.524;10.166;2022-08-19T10:26:11;19.70;99.90
4993;DHT22;2514;53.524;10.166;2022-08-19T10:28:39;19.60;99.90
4993;DHT22;2514;53.524;10.166;2022-08-19T10:31:09;19.70;99.90
4993;DHT22;2514;53.524;10.166;2022-08-19T10:33:36;19.80;99.90
4993;DHT22;2514;53.524;10.166;2022-08-19T10:36:06;19.70;99.90
4993;DHT22;2514;53.524;10.166;2022-08-19T10:38:33;19.70;99.90
4993;DHT22;2514;53.524;10.166;2022-08-19T10:41:07;19.80;99.90
4993;DHT22;2514;53.524;10.166;2022-08-19T10:43:34;19.80;99.90
4993;DHT22;2514;53.524;10.166;2022-08-19T10:46:04;19.80;99.90
4993;DHT22;2514;53.524;10.166;2022-08-19T10:48:32;20.00;99.90
4993;DHT22;2514;53.524;10.166;2022-08-19T10:51:00;20.20;99.90
4993;DHT22;2514;53.524;10.166;2022-08-19T10:53:44;20.30;99.90
4993;DHT22;2514;53.524;10.166;2022-08-19T10:56:11;20.30;99.90
4993;DHT22;2514;53.524;10.166;2022-08-19T10:59:04;20.40;99.90
4993;DHT22;2514;53.524;10.166;2022-08-19T11:01:34;20.30;99.90
4993;DHT22;2514;53.524;10.166;2022-08-19T11:04:03;20.40;99.90
4993;DHT22;2514;53.524;10.166;2022-08-19T11:06:34;20.40;99.90
4993;DHT22;2514;53.524;10.166;2022-08-19T11:09:00;20.30;99.90
4993;DHT22;2514;53.524;10.166;2022-08-19T11:11:27;20.20;99.90
4993;DHT22;2514;53.524;10.166;2022-08-19T11:13:54;20.30;99.90
4993;DHT22;2514;53.524;10.166;2022-08-19T11:16:23;20.40;99.90
4993;DHT22;2514;53.524;10.166;2022-08-19T11:18:52;20.30;99.90
4993;DHT22;2514;53.524;10.166;2022-08-19T11:21:22;20.40;99.90
4993;DHT22;2514;53.524;10.166;2022-08-19T11:23:52;20.40;99.90
4993;DHT22;2514;53.524;10.166;2022-08-19T11:26:19;20.30;99.90
4993;DHT22;2514;53.524;10.166;2022-08-19T11:28:47;20.30;99.90
4993;DHT22;2514;53.524;10.166;2022-08-19T11:31:18;20.30;99.90
4993;DHT22;2514;53.524;10.166;2022-08-19T11:33:46;20.40;99.90
4993;DHT22;2514;53.524;10.166;2022-08-19T11:36:16;20.40;99.90
4993;DHT22;2514;53.524;10.166;2022-08-19T11:38:45;20.50;99.90
4993;DHT22;2514;53.524;10.166;2022-08-19T11:41:14;20.40;99.90
4993;DHT22;2514;53.524;10.166;2022-08-19T11:43:42;20.40;99.90
4993;DHT22;2514;53.524;10.166;2022-08-19T11:46:11;20.30;99.90
4993;DHT22;2514;53.524;10.166;2022-08-19T11:48:39;20.30;99.90
4993;DHT22;2514;53.524;10.166;2022-08-19T11:51:08;20.20;99.90
4993;DHT22;2514;53.524;10.166;2022-08-19T11:53:37;20.30;99.90
4993;DHT22;2514;53.524;10.166;2022-08-19T11:56:06;20.30;99.90
4993;DHT22;2514;53.524;10.166;2022-08-19T11:58:34;20.30;99.90
4993;DHT22;2514;53.524;10.166;2022-08-19T12:01:01;20.20;99.90
4993;DHT22;2514;53.524;10.166;2022-08-19T12:03:28;20.50;99.90
4993;DHT22;2514;53.524;10.166;2022-08-19T12:05:54;20.60;99.90
4993;DHT22;2514;53.524;10.166;2022-08-19T12:08:22;20.80;99.90
4993;DHT22;2514;53.524;10.166;2022-08-19T12:10:49;21.00;99.90
4993;DHT22;2514;53.524;10.166;2022-08-19T12:13:17;21.10;99.90
4993;DHT22;2514;53.524;10.166;2022-08-19T12:15:46;21.10;99.90
4993;DHT22;2514;53.524;10.166;2022-08-19T12:18:13;20.90;99.90
4993;DHT22;2514;53.524;10.166;2022-08-19T12:20:42;20.90;99.90
4993;DHT22;2514;53.524;10.166;2022-08-19T12:23:09;21.10;99.90
4993;DHT22;2514;53.524;10.166;2022-08-19T12:25:37;21.10;99.90
4993;DHT22;2514;53.524;10.166;2022-08-19T12:28:04;21.10;99.90
4993;DHT22;2514;53.524;10.166;2022-08-19T12:30:32;21.10;99.90
4993;DHT22;2514;53.524;10.166;2022-08-19T12:32:59;21.10;99.90
4993;DHT22;2514;53.524;10.166;2022-08-19T12:35:26;21.10;99.90
4993;DHT22;2514;53.524;10.166;2022-08-19T12:37:54;21.10;99.90
4993;DHT22;2514;53.524;10.166;2022-08-19T12:40:21;21.20;99.90
4993;DHT22;2514;53.524;10.166;2022-08-19T12:42:48;21.20;99.90
4993;DHT22;2514;53.524;10.166;2022-08-19T12:45:17;21.20;99.90
4993;DHT22;2514;53.524;10.166;2022-08-19T12:47:46;21.30;99.90
4993;DHT22;2514;53.524;10.166;2022-08-19T12:50:13;21.50;99.90
4993;DHT22;2514;53.524;10.166;2022-08-19T12:52:40;21.60;99.90
4993;DHT22;2514;53.524;10.166;2022-08-19T12:55:08;21.80;99.90
4993;DHT22;2514;53.524;10.166;2022-08-19T12:57:36;22.10;99.90
4993;DHT22;2514;53.524;10.166;2022-08-19T13:00:06;22.60;99.90
4993;DHT22;2514;53.524;10.166;2022-08-19T13:02:36;22.90;99.90
4993;DHT22;2514;53.524;10.166;2022-08-19T13:05:06;23.00;99.90
4993;DHT22;2514;53.524;10.166;2022-08-19T13:07:33;23.00;99.90
4993;DHT22;2514;53.524;10.166;2022-08-19T13:10:01;23.00;99.90
4993;DHT22;2514;53.524;10.166;2022-08-19T13:12:28;23.00;99.90
4993;DHT22;2514;53.524;10.166;2022-08-19T13:14:55;22.90;99.90
4993;DHT22;2514;53.524;10.166;2022-08-19T13:17:22;23.00;99.90
4993;DHT22;2514;53.524;10.166;2022-08-19T13:19:50;23.10;99.90
4993;DHT22;2514;53.524;10.166;2022-08-19T13:22:18;23.10;99.90
4993;DHT22;2514;53.524;10.166;2022-08-19T13:24:45;22.90;99.90
4993;DHT22;2514;53.524;10.166;2022-08-19T13:27:12;22.90;99.90
4993;DHT22;2514;53.524;10.166;2022-08-19T13:29:39;22.80;99.90
4993;DHT22;2514;53.524;10.166;2022-08-19T13:32:24;22.80;99.90
4993;DHT22;2514;53.524;10.166;2022-08-19T13:35:08;22.80;99.90
4993;DHT22;2514;53.524;10.166;2022-08-19T13:37:36;22.80;99.90
4993;DHT22;2514;53.524;10.166;2022-08-19T13:40:10;23.10;99.90
4993;DHT22;2514;53.524;10.166;2022-08-19T13:42:38;23.30;99.90
4993;DHT22;2514;53.524;10.166;2022-08-19T13:45:07;23.90;99.90
4993;DHT22;2514;53.524;10.166;2022-08-19T13:47:34;24.50;99.90
4993;DHT22;2514;53.524;10.166;2022-08-19T13:50:05;25.40;1.00
4993;DHT22;2514;53.524;10.166;2022-08-19T13:52:32;25.90;99.90
4993;DHT22;2514;53.524;10.166;2022-08-19T13:55:00;26.00;1.00
4993;DHT22;2514;53.524;10.166;2022-08-19T13:57:27;25.70;1.00
4993;DHT22;2514;53.524;10.166;2022-08-19T13:59:53;25.30;1.00
4993;DHT22;2514;53.524;10.166;2022-08-19T14:02:20;24.60;1.00
4993;DHT22;2514;53.524;10.166;2022-08-19T14:04:47;24.40;5.50
4993;DHT22;2514;53.524;10.166;2022-08-19T14:07:14;24.20;99.90
4993;DHT22;2514;53.524;10.166;2022-08-19T14:09:41;24.50;35.60
4993;DHT22;2514;53.524;10.166;2022-08-19T14:12:09;24.50;1.00
4993;DHT22;2514;53.524;10.166;2022-08-19T14:14:36;24.70;1.00
4993;DHT22;2514;53.524;10.166;2022-08-19T14:17:05;24.70;1.00
4993;DHT22;2514;53.524;10.166;2022-08-19T14:19:33;24.70;1.00
4993;DHT22;2514;53.524;10.166;2022-08-19T14:22:00;24.30;1.00
4993;DHT22;2514;53.524;10.166;2022-08-19T14:24:26;23.80;56.60
4993;DHT22;2514;53.524;10.166;2022-08-19T14:26:53;23.70;99.90
4993;DHT22;2514;53.524;10.166;2022-08-19T14:29:22;23.60;99.90
4993;DHT22;2514;53.524;10.166;2022-08-19T14:31:48;23.20;99.90
4993;DHT22;2514;53.524;10.166;2022-08-19T14:34:15;23.00;1.00
4993;DHT22;2514;53.524;10.166;2022-08-19T14:36:42;22.80;1.00
4993;DHT22;2514;53.524;10.166;2022-08-19T14:39:10;22.80;1.00
4993;DHT22;2514;53.524;10.166;2022-08-19T14:41:40;22.90;1.00
4993;DHT22;2514;53.524;10.166;2022-08-19T14:44:07;22.80;1.00
4993;DHT22;2514;53.524;10.166;2022-08-19T14:46:39;23.00;1.00
4993;DHT22;2514;53.524;10.166;2022-08-19T14:49:06;23.00;1.00
4993;DHT22;2514;53.524;10.166;2022-08-19T14:51:33;22.80;1.00
4993;DHT22;2514;53.524;10.166;2022-08-19T14:54:00;22.70;1.00
4993;DHT22;2514;53.524;10.166;2022-08-19T14:56:28;22.70;1.00
4993;DHT22;2514;53.524;10.166;2022-08-19T14:58:56;22.60;1.00
4993;DHT22;2514;53.524;10.166;2022-08-19T15:01:25;22.70;1.00
4993;DHT22;2514;53.524;10.166;2022-08-19T15:03:54;22.80;1.00
4993;DHT22;2514;53.524;10.166;2022-08-19T15:06:22;23.00;1.00
4993;DHT22;2514;53.524;10.166;2022-08-19T15:08:49;23.00;1.00
4993;DHT22;2514;53.524;10.166;2022-08-19T15:11:18;23.20;1.00
4993;DHT22;2514;53.524;10.166;2022-08-19T15:13:46;23.20;1.00
4993;DHT22;2514;53.524;10.166;2022-08-19T15:16:14;23.10;1.00
4993;DHT22;2514;53.524;10.166;2022-08-19T15:18:42;23.20;1.00
4993;DHT22;2514;53.524;10.166;2022-08-19T15:21:11;23.30;1.00
4993;DHT22;2514;53.524;10.166;2022-08-19T15:23:39;23.60;1.00
4993;DHT22;2514;53.524;10.166;2022-08-19T15:26:06;23.70;1.00
4993;DHT22;2514;53.524;10.166;2022-08-19T15:28:36;23.60;1.00
4993;DHT22;2514;53.524;10.166;2022-08-19T15:31:04;23.70;99.90
4993;DHT22;2514;53.524;10.166;2022-08-19T15:33:33;23.50;99.90
4993;DHT22;2514;53.524;10.166;2022-08-19T15:36:02;23.80;99.90
4993;DHT22;2514;53.524;10.166;2022-08-19T15:38:32;23.70;99.90
4993;DHT22;2514;53.524;10.166;2022-08-19T15:41:00;23.60;99.90
4993;DHT22;2514;53.524;10.166;2022-08-19T15:43:49;23.50;99.90
4993;DHT22;2514;53.524;10.166;2022-08-19T15:46:17;23.60;99.90
4993;DHT22;2514;53.524;10.166;2022-08-19T15:48:44;23.40;99.90
4993;DHT22;2514;53.524;10.166;2022-08-19T15:51:11;23.40;99.90
4993;DHT22;2514;53.524;10.166;2022-08-19T15:53:40;23.30;99.90
4993;DHT22;2514;53.524;10.166;2022-08-19T15:56:08;23.60;99.90
4993;DHT22;2514;53.524;10.166;2022-08-19T15:58:35;23.60;99.90